createdAt,value
2018-09-21T00:03:30.511Z,56.30
2018-09-21T00:08:47.939Z,56.45
2018-09-21T00:14:05.482Z,55.59
2018-09-21T00:19:22.900Z,56.04
2018-09-21T00:24:40.314Z,56.65
2018-09-21T00:29:58.028Z,56.89
2018-09-21T00:35:15.475Z,55.77
2018-09-21T00:40:33.027Z,56.07
2018-09-21T00:45:50.459Z,55.34
2018-09-21T00:51:07.982Z,56.14
2018-09-21T00:56:25.414Z,56.87
2018-09-21T01:01:42.823Z,55.89
2018-09-21T01:07:00.252Z,55.55
2018-09-21T01:12:17.721Z,56.38
2018-09-21T01:17:35.123Z,55.14
2018-09-21T01:22:52.588Z,55.75
2018-09-21T01:28:10.106Z,56.22
2018-09-21T01:33:27.540Z,55.95
2018-09-21T01:38:44.963Z,55.52
2018-09-21T01:44:02.427Z,57.21
2018-09-21T01:49:20.587Z,57.05
2018-09-21T01:54:38.223Z,56.48
2018-09-21T01:59:55.643Z,56.27
2018-09-21T02:05:13.159Z,56.65
2018-09-21T02:10:30.662Z,57.26
2018-09-21T02:15:48.152Z,56.68
2018-09-21T02:21:05.692Z,56.70
2018-09-21T02:26:23.325Z,56.50
2018-09-21T02:31:40.796Z,56.87
2018-09-21T02:36:58.233Z,57.62
2018-09-21T02:42:15.737Z,56.64
2018-09-21T02:47:33.159Z,56.50
2018-09-21T02:52:51.292Z,56.70
2018-09-21T02:58:08.705Z,56.28
2018-09-21T03:03:26.165Z,55.91
2018-09-21T03:08:43.613Z,53.64
2018-09-21T03:14:01.052Z,54.62
2018-09-21T03:19:18.575Z,53.59
2018-09-21T03:24:36.185Z,52.25
2018-09-21T03:29:54.551Z,52.84
2018-09-21T03:35:12.085Z,52.97
2018-09-21T03:40:30.156Z,52.63
2018-09-21T03:45:47.590Z,52.66
2018-09-21T03:51:05.023Z,52.75
2018-09-21T03:56:22.538Z,52.63
2018-09-21T04:01:40.603Z,53.00
2018-09-21T04:06:57.975Z,53.24
2018-09-21T04:12:15.461Z,53.68
2018-09-21T04:17:33.540Z,53.61
2018-09-21T04:22:57.733Z,53.51
2018-09-21T04:28:15.142Z,53.96
2018-09-21T04:33:32.577Z,53.89
2018-09-21T04:38:49.999Z,54.51
2018-09-21T04:44:08.796Z,55.00
2018-09-21T04:49:27.099Z,54.78
2018-09-21T04:54:44.605Z,55.37
2018-09-21T05:00:02.099Z,55.01
2018-09-21T05:05:19.797Z,55.42
2018-09-21T05:10:38.146Z,55.13
2018-09-21T05:15:56.422Z,55.62
2018-09-21T05:21:14.172Z,56.41
2018-09-21T05:26:32.417Z,55.97
2018-09-21T05:31:50.592Z,55.93
2018-09-21T05:37:08.012Z,57.13
2018-09-21T05:42:25.484Z,56.69
2018-09-21T05:47:42.914Z,57.08
2018-09-21T05:53:00.327Z,57.79
2018-09-21T05:58:17.743Z,56.90
2018-09-21T06:03:35.319Z,57.64
2018-09-21T06:08:52.735Z,57.87
2018-09-21T06:14:11.100Z,57.66
2018-09-21T06:19:28.609Z,57.68
2018-09-21T06:24:46.045Z,58.89
2018-09-21T06:30:04.072Z,57.55
2018-09-21T06:35:21.606Z,58.26
2018-09-21T06:40:39.092Z,58.27
2018-09-21T06:45:56.534Z,57.74
2018-09-21T06:51:14.063Z,58.39
2018-09-21T06:56:31.507Z,58.29
2018-09-21T07:01:49.046Z,58.03
2018-09-21T07:07:06.501Z,57.54
2018-09-21T07:12:24.012Z,58.10
2018-09-21T07:17:42.024Z,57.74
2018-09-21T07:22:59.502Z,57.40
2018-09-21T07:28:17.023Z,56.02
2018-09-21T07:33:34.570Z,56.34
2018-09-21T07:38:52.096Z,55.53
2018-09-21T07:44:09.527Z,54.60
2018-09-21T07:49:27.068Z,55.99
2018-09-21T07:54:45.227Z,57.79
2018-09-21T08:00:03.176Z,56.54
2018-09-21T08:05:25.191Z,61.03
2018-09-21T08:10:42.731Z,59.67
2018-09-21T08:16:00.220Z,57.00
2018-09-21T08:21:17.709Z,56.40
2018-09-21T08:26:35.593Z,58.34
2018-09-21T08:31:53.024Z,60.87
2018-09-21T08:37:11.133Z,61.16
2018-09-21T08:42:29.716Z,63.56
2018-09-21T08:47:47.125Z,76.32
2018-09-21T08:53:05.641Z,82.74
2018-09-21T08:58:23.112Z,87.33
2018-09-21T09:03:40.591Z,87.32
2018-09-21T09:08:58.118Z,89.30
2018-09-21T09:14:15.923Z,86.37
2018-09-21T09:19:33.467Z,85.95
2018-09-21T09:24:51.010Z,87.60
2018-09-21T09:30:08.611Z,88.06
2018-09-21T09:35:26.010Z,88.27
2018-09-21T09:40:43.528Z,87.81
2018-09-21T09:46:01.152Z,88.48
2018-09-21T09:51:18.599Z,88.40
2018-09-21T09:56:36.063Z,87.58
2018-09-21T10:01:53.609Z,88.90
2018-09-21T10:07:11.245Z,89.95
2018-09-21T10:12:28.942Z,89.21
2018-09-21T10:17:46.419Z,88.01
2018-09-21T10:23:04.241Z,89.61
2018-09-21T10:28:21.799Z,89.97
2018-09-21T10:33:39.191Z,89.29
2018-09-21T10:38:57.455Z,89.01
2018-09-21T10:44:15.000Z,89.98
2018-09-21T10:49:32.536Z,87.87
2018-09-21T10:54:50.061Z,88.39
2018-09-21T11:00:08.838Z,87.40
2018-09-21T11:05:26.924Z,85.44
2018-09-21T11:10:44.648Z,85.88
2018-09-21T11:16:02.531Z,86.89
2018-09-21T11:21:19.989Z,86.64
2018-09-21T11:26:37.519Z,84.87
2018-09-21T11:31:54.973Z,86.72
2018-09-21T11:37:12.499Z,87.44
2018-09-21T11:42:29.974Z,89.26
2018-09-21T11:47:47.522Z,88.16
2018-09-21T11:53:05.015Z,88.60
2018-09-21T11:58:22.496Z,86.89
2018-09-21T12:03:39.935Z,86.96
2018-09-21T12:08:57.403Z,86.50
2018-09-21T12:14:15.002Z,87.68
2018-09-21T12:19:32.455Z,85.04
2018-09-21T12:24:49.898Z,84.96
2018-09-21T12:30:07.466Z,85.60
2018-09-21T12:35:25.027Z,82.78
2018-09-21T12:40:42.472Z,79.87
2018-09-21T12:46:00.229Z,78.78
2018-09-21T12:51:18.219Z,77.12
2018-09-21T12:56:35.737Z,76.50
2018-09-21T13:01:53.128Z,74.20
2018-09-21T13:07:10.621Z,73.21
2018-09-21T13:12:28.129Z,72.55
2018-09-21T13:17:46.570Z,69.53
2018-09-21T13:23:04.763Z,70.13
2018-09-21T13:28:22.263Z,69.13
2018-09-21T13:33:39.685Z,65.75
2018-09-21T13:38:57.120Z,62.63
2018-09-21T13:44:14.575Z,57.97
2018-09-21T13:49:32.089Z,58.31
2018-09-21T13:54:49.563Z,57.33
2018-09-21T14:00:07.933Z,56.85
2018-09-21T14:05:25.347Z,57.10
2018-09-21T14:10:42.863Z,50.37
2018-09-21T14:16:00.333Z,49.68
2018-09-21T14:21:17.829Z,45.65
2018-09-21T14:26:35.528Z,42.63
2018-09-21T14:31:53.035Z,43.74
2018-09-21T14:37:10.540Z,45.27
2018-09-21T14:42:28.099Z,49.31
2018-09-21T14:47:45.542Z,51.77
2018-09-21T14:53:02.961Z,49.86
2018-09-21T14:58:20.400Z,52.66
2018-09-21T15:03:37.936Z,52.78
2018-09-21T15:08:55.924Z,53.81
2018-09-21T15:14:13.537Z,54.21
2018-09-21T15:19:30.998Z,55.85
2018-09-21T15:24:48.408Z,52.94
2018-09-21T15:30:08.124Z,52.47
2018-09-21T15:35:25.541Z,53.12
2018-09-21T15:40:43.067Z,50.19
2018-09-21T15:46:00.486Z,48.98
2018-09-21T15:51:17.908Z,47.78
2018-09-21T15:56:35.554Z,48.63
2018-09-21T16:22:09.830Z,45.93
2018-09-21T16:27:28.461Z,43.35
2018-09-21T16:32:47.181Z,43.11
2018-09-21T16:38:05.723Z,43.73
2018-09-21T16:43:25.317Z,43.15
2018-09-21T16:48:44.012Z,43.97
2018-09-21T16:54:02.671Z,44.70
2018-09-21T16:59:21.859Z,45.33
2018-09-21T17:04:41.412Z,45.60
2018-09-21T17:09:59.919Z,45.37
2018-09-21T17:15:18.474Z,46.80
2018-09-21T17:20:37.271Z,45.57
2018-09-21T17:25:55.986Z,46.90
2018-09-21T17:31:15.272Z,47.36
2018-09-21T17:36:33.802Z,47.21
2018-09-21T17:41:52.324Z,47.62
2018-09-21T17:47:10.951Z,48.96
2018-09-21T17:52:29.635Z,48.77
2018-09-21T17:57:48.160Z,49.30
2018-09-21T18:03:06.812Z,49.10
2018-09-21T18:08:25.476Z,50.04
2018-09-21T18:13:44.099Z,50.18
2018-09-21T18:19:02.909Z,50.56
2018-09-21T18:24:21.476Z,50.90
2018-09-21T18:29:40.490Z,51.57
2018-09-21T18:34:59.220Z,50.28
2018-09-21T18:40:18.358Z,50.39
2018-09-21T18:45:37.075Z,49.95
2018-09-21T18:50:55.797Z,52.39
2018-09-21T18:56:15.019Z,51.79
2018-09-21T19:01:33.769Z,52.48
2018-09-21T19:06:52.951Z,52.98
2018-09-21T19:12:12.908Z,52.98
2018-09-21T19:17:33.530Z,53.54
2018-09-21T19:22:52.370Z,53.85
2018-09-21T19:28:11.845Z,54.35
2018-09-21T19:33:31.742Z,54.64
2018-09-21T19:38:50.598Z,54.90
2018-09-21T19:44:09.426Z,55.28
2018-09-21T19:49:28.198Z,55.17
2018-09-21T19:54:47.780Z,55.23
2018-09-21T20:00:07.941Z,55.83
2018-09-21T20:05:26.663Z,55.01
2018-09-21T20:10:45.247Z,54.33
2018-09-21T20:16:04.684Z,54.80
2018-09-21T20:21:23.362Z,54.78
2018-09-21T20:26:42.018Z,54.98
2018-09-21T20:32:05.915Z,54.76
2018-09-21T20:37:24.586Z,54.05
2018-09-21T20:42:43.162Z,54.19
2018-09-21T20:48:01.876Z,54.59
2018-09-21T20:53:20.939Z,54.76
2018-09-21T20:58:39.502Z,55.00
2018-09-21T21:03:58.963Z,56.17
2018-09-21T21:09:18.280Z,55.66
2018-09-21T21:14:36.954Z,56.97
2018-09-21T21:19:55.502Z,57.45
2018-09-21T21:25:14.066Z,57.89
2018-09-21T21:30:32.698Z,58.58
2018-09-21T21:35:51.918Z,59.60
2018-09-21T21:41:11.122Z,60.02
2018-09-21T21:46:30.515Z,60.40
2018-09-21T21:51:49.006Z,60.94
2018-09-21T21:57:08.869Z,61.56
2018-09-21T22:02:27.905Z,61.92
2018-09-21T22:07:46.394Z,62.13
2018-09-21T22:13:10.887Z,62.46
2018-09-21T22:18:29.550Z,62.82
2018-09-21T22:23:48.079Z,63.35
2018-09-21T22:29:06.649Z,63.75
2018-09-21T22:34:26.375Z,64.07
2018-09-21T22:39:44.924Z,64.49
2018-09-21T22:45:03.609Z,65.21
2018-09-21T22:50:22.180Z,64.57
2018-09-21T22:55:40.730Z,64.92
2018-09-21T23:00:59.222Z,64.79
2018-09-21T23:06:17.732Z,64.84
2018-09-21T23:11:36.263Z,64.73
2018-09-21T23:16:55.012Z,64.44
2018-09-21T23:22:13.617Z,64.89
2018-09-21T23:27:32.738Z,66.10
2018-09-21T23:32:51.362Z,67.29
2018-09-21T23:38:10.523Z,68.17
2018-09-21T23:43:29.101Z,67.91
2018-09-21T23:48:47.611Z,67.73
2018-09-21T23:54:06.443Z,67.33
2018-09-21T23:59:25.510Z,68.20
